Terminal Aerodrome Forecast
Issued by NWS

Home | Current Version | Previous Version | Graphics & Text | Print | Product List | Glossary On
Versions: 1 2 3 4 5 6 7 8 9 10 11 12 13 14 15 16 17 18 19 20 21
000
FTUS43 KGRB 280537
TAFATW
TAF
KATW 280537Z 2806/2906 26003KT P6SM BKN008
      TEMPO 2806/2809 2SM BR SCT005 BKN020
     FM280900 27005KT 5SM BR OVC003
      TEMPO 2809/2813 1SM BR
     FM281300 29004KT P6SM SCT004 BKN020
     FM281600 24006KT P6SM SCT025
     FM290000 VRB03KT P6SM SKC=

USA.gov is the U.S. government's official web portal to all federal, state and local government web resources and services.